sensor_id;sensor_type;location;lat;lon;timestamp;P1;durP1;ratioP1;P2;durP2;ratioP2
71606;SDS011;60641;53.556;9.914;2023-11-19T00:01:01;7.80;;;3.10;;
71606;SDS011;60641;53.556;9.914;2023-11-19T00:03:47;7.30;;;2.40;;
71606;SDS011;60641;53.556;9.914;2023-11-19T00:06:14;6.70;;;2.80;;
71606;SDS011;60641;53.556;9.914;2023-11-19T00:08:41;6.90;;;3.00;;
71606;SDS011;60641;53.556;9.914;2023-11-19T00:11:07;6.90;;;2.90;;
71606;SDS011;60641;53.556;9.914;2023-11-19T00:13:34;6.20;;;2.60;;
71606;SDS011;60641;53.556;9.914;2023-11-19T00:16:00;6.00;;;2.60;;
71606;SDS011;60641;53.556;9.914;2023-11-19T00:18:27;5.70;;;2.10;;
71606;SDS011;60641;53.556;9.914;2023-11-19T00:20:53;7.20;;;2.60;;
71606;SDS011;60641;53.556;9.914;2023-11-19T00:23:20;6.00;;;2.60;;
71606;SDS011;60641;53.556;9.914;2023-11-19T00:25:46;6.80;;;2.50;;
71606;SDS011;60641;53.556;9.914;2023-11-19T00:28:14;6.00;;;1.80;;
71606;SDS011;60641;53.556;9.914;2023-11-19T00:30:40;6.20;;;2.20;;
71606;SDS011;60641;53.556;9.914;2023-11-19T00:33:07;5.70;;;2.00;;
71606;SDS011;60641;53.556;9.914;2023-11-19T00:35:33;5.50;;;2.00;;
71606;SDS011;60641;53.556;9.914;2023-11-19T00:38:00;5.30;;;1.90;;
71606;SDS011;60641;53.556;9.914;2023-11-19T00:40:26;5.80;;;1.80;;
71606;SDS011;60641;53.556;9.914;2023-11-19T00:42:55;4.10;;;1.60;;
71606;SDS011;60641;53.556;9.914;2023-11-19T00:45:22;4.80;;;1.70;;
71606;SDS011;60641;53.556;9.914;2023-11-19T00:47:48;4.80;;;1.80;;
71606;SDS011;60641;53.556;9.914;2023-11-19T00:50:15;4.20;;;1.60;;
71606;SDS011;60641;53.556;9.914;2023-11-19T00:52:41;4.60;;;1.80;;
71606;SDS011;60641;53.556;9.914;2023-11-19T00:55:08;5.70;;;1.90;;
71606;SDS011;60641;53.556;9.914;2023-11-19T00:57:36;5.20;;;1.60;;
71606;SDS011;60641;53.556;9.914;2023-11-19T01:00:02;4.60;;;1.60;;
71606;SDS011;60641;53.556;9.914;2023-11-19T01:02:35;4.40;;;1.50;;
71606;SDS011;60641;53.556;9.914;2023-11-19T01:05:02;4.00;;;1.40;;
71606;SDS011;60641;53.556;9.914;2023-11-19T01:07:28;3.80;;;1.30;;
71606;SDS011;60641;53.556;9.914;2023-11-19T01:09:55;3.20;;;1.20;;
71606;SDS011;60641;53.556;9.914;2023-11-19T01:12:22;3.30;;;1.20;;
71606;SDS011;60641;53.556;9.914;2023-11-19T01:14:48;3.60;;;1.10;;
71606;SDS011;60641;53.556;9.914;2023-11-19T01:17:15;3.00;;;1.20;;
71606;SDS011;60641;53.556;9.914;2023-11-19T01:19:42;3.20;;;1.00;;
71606;SDS011;60641;53.556;9.914;2023-11-19T01:22:08;3.50;;;1.20;;
71606;SDS011;60641;53.556;9.914;2023-11-19T01:24:35;3.10;;;1.20;;
71606;SDS011;60641;53.556;9.914;2023-11-19T01:27:01;2.70;;;0.90;;
71606;SDS011;60641;53.556;9.914;2023-11-19T01:29:29;2.90;;;1.10;;
71606;SDS011;60641;53.556;9.914;2023-11-19T01:31:55;3.10;;;1.10;;
71606;SDS011;60641;53.556;9.914;2023-11-19T01:34:22;3.90;;;1.10;;
71606;SDS011;60641;53.556;9.914;2023-11-19T01:36:48;2.40;;;0.90;;
71606;SDS011;60641;53.556;9.914;2023-11-19T01:39:15;1.90;;;0.70;;
71606;SDS011;60641;53.556;9.914;2023-11-19T01:41:46;2.00;;;0.80;;
71606;SDS011;60641;53.556;9.914;2023-11-19T01:44:12;1.80;;;0.70;;
71606;SDS011;60641;53.556;9.914;2023-11-19T01:46:40;3.00;;;1.10;;
71606;SDS011;60641;53.556;9.914;2023-11-19T01:49:07;2.10;;;0.80;;
71606;SDS011;60641;53.556;9.914;2023-11-19T01:51:34;1.70;;;0.70;;
71606;SDS011;60641;53.556;9.914;2023-11-19T01:54:01;1.20;;;0.50;;
71606;SDS011;60641;53.556;9.914;2023-11-19T01:56:28;1.80;;;0.50;;
71606;SDS011;60641;53.556;9.914;2023-11-19T01:58:55;1.20;;;0.50;;
71606;SDS011;60641;53.556;9.914;2023-11-19T02:01:22;1.60;;;0.60;;
71606;SDS011;60641;53.556;9.914;2023-11-19T02:03:48;1.40;;;0.50;;
71606;SDS011;60641;53.556;9.914;2023-11-19T02:06:15;1.00;;;0.40;;
71606;SDS011;60641;53.556;9.914;2023-11-19T02:08:42;1.90;;;0.70;;
71606;SDS011;60641;53.556;9.914;2023-11-19T02:11:09;2.30;;;0.60;;
71606;SDS011;60641;53.556;9.914;2023-11-19T02:13:37;1.10;;;0.50;;
71606;SDS011;60641;53.556;9.914;2023-11-19T02:16:04;1.60;;;0.50;;
71606;SDS011;60641;53.556;9.914;2023-11-19T02:18:30;2.10;;;0.40;;
71606;SDS011;60641;53.556;9.914;2023-11-19T02:20:57;2.60;;;0.50;;
71606;SDS011;60641;53.556;9.914;2023-11-19T02:23:26;1.10;;;0.50;;
71606;SDS011;60641;53.556;9.914;2023-11-19T02:28:41;1.30;;;0.40;;
71606;SDS011;60641;53.556;9.914;2023-11-19T02:31:09;1.20;;;0.50;;
71606;SDS011;60641;53.556;9.914;2023-11-19T02:33:37;1.60;;;0.50;;
71606;SDS011;60641;53.556;9.914;2023-11-19T02:36:04;1.00;;;0.40;;
71606;SDS011;60641;53.556;9.914;2023-11-19T02:38:33;1.00;;;0.40;;
71606;SDS011;60641;53.556;9.914;2023-11-19T02:41:02;1.20;;;0.40;;
71606;SDS011;60641;53.556;9.914;2023-11-19T02:43:32;1.10;;;0.40;;
71606;SDS011;60641;53.556;9.914;2023-11-19T02:46:02;1.50;;;0.50;;
71606;SDS011;60641;53.556;9.914;2023-11-19T02:48:33;0.80;;;0.40;;
71606;SDS011;60641;53.556;9.914;2023-11-19T02:51:02;1.10;;;0.40;;
71606;SDS011;60641;53.556;9.914;2023-11-19T02:53:29;1.70;;;0.60;;
71606;SDS011;60641;53.556;9.914;2023-11-19T02:55:56;1.10;;;0.50;;
71606;SDS011;60641;53.556;9.914;2023-11-19T02:58:32;2.80;;;0.60;;
71606;SDS011;60641;53.556;9.914;2023-11-19T03:00:58;2.00;;;0.60;;
71606;SDS011;60641;53.556;9.914;2023-11-19T03:03:27;1.30;;;0.50;;
71606;SDS011;60641;53.556;9.914;2023-11-19T03:06:04;1.10;;;0.50;;
71606;SDS011;60641;53.556;9.914;2023-11-19T03:08:32;1.70;;;0.50;;
71606;SDS011;60641;53.556;9.914;2023-11-19T03:10:59;2.30;;;0.50;;
71606;SDS011;60641;53.556;9.914;2023-11-19T03:13:26;1.40;;;0.40;;
71606;SDS011;60641;53.556;9.914;2023-11-19T03:15:53;1.80;;;0.40;;
71606;SDS011;60641;53.556;9.914;2023-11-19T03:18:20;1.20;;;0.30;;
71606;SDS011;60641;53.556;9.914;2023-11-19T03:20:46;2.30;;;0.50;;
71606;SDS011;60641;53.556;9.914;2023-11-19T03:23:13;1.40;;;0.50;;
71606;SDS011;60641;53.556;9.914;2023-11-19T03:25:40;3.70;;;0.60;;
71606;SDS011;60641;53.556;9.914;2023-11-19T03:28:06;0.90;;;0.40;;
71606;SDS011;60641;53.556;9.914;2023-11-19T03:30:32;1.80;;;0.60;;
71606;SDS011;60641;53.556;9.914;2023-11-19T03:32:59;2.50;;;0.50;;
71606;SDS011;60641;53.556;9.914;2023-11-19T03:35:28;1.60;;;0.50;;
71606;SDS011;60641;53.556;9.914;2023-11-19T03:37:55;2.10;;;0.70;;
71606;SDS011;60641;53.556;9.914;2023-11-19T03:40:22;3.00;;;0.60;;
71606;SDS011;60641;53.556;9.914;2023-11-19T03:42:48;1.90;;;0.60;;
71606;SDS011;60641;53.556;9.914;2023-11-19T03:45:15;1.90;;;0.60;;
71606;SDS011;60641;53.556;9.914;2023-11-19T03:47:42;2.50;;;0.70;;
71606;SDS011;60641;53.556;9.914;2023-11-19T03:50:08;3.40;;;0.90;;
71606;SDS011;60641;53.556;9.914;2023-11-19T03:52:35;2.40;;;0.80;;
71606;SDS011;60641;53.556;9.914;2023-11-19T03:55:02;2.70;;;0.70;;
71606;SDS011;60641;53.556;9.914;2023-11-19T03:57:31;2.30;;;0.80;;
71606;SDS011;60641;53.556;9.914;2023-11-19T03:59:58;3.80;;;0.70;;
71606;SDS011;60641;53.556;9.914;2023-11-19T04:02:25;2.50;;;0.80;;
71606;SDS011;60641;53.556;9.914;2023-11-19T04:04:54;2.70;;;0.90;;
71606;SDS011;60641;53.556;9.914;2023-11-19T04:07:21;3.30;;;1.00;;
71606;SDS011;60641;53.556;9.914;2023-11-19T04:09:47;2.50;;;1.00;;
71606;SDS011;60641;53.556;9.914;2023-11-19T04:12:14;3.80;;;1.10;;
71606;SDS011;60641;53.556;9.914;2023-11-19T04:14:40;3.40;;;1.20;;
71606;SDS011;60641;53.556;9.914;2023-11-19T04:17:07;4.50;;;1.30;;
71606;SDS011;60641;53.556;9.914;2023-11-19T04:19:33;5.70;;;1.20;;
71606;SDS011;60641;53.556;9.914;2023-11-19T04:22:00;3.50;;;1.40;;
71606;SDS011;60641;53.556;9.914;2023-11-19T04:24:26;4.30;;;1.40;;
71606;SDS011;60641;53.556;9.914;2023-11-19T04:26:52;3.80;;;1.40;;
71606;SDS011;60641;53.556;9.914;2023-11-19T04:29:19;4.40;;;1.50;;
71606;SDS011;60641;53.556;9.914;2023-11-19T04:31:45;4.70;;;1.50;;
71606;SDS011;60641;53.556;9.914;2023-11-19T04:34:12;4.50;;;1.90;;
71606;SDS011;60641;53.556;9.914;2023-11-19T04:36:39;6.00;;;2.00;;
71606;SDS011;60641;53.556;9.914;2023-11-19T04:39:05;4.80;;;2.00;;
71606;SDS011;60641;53.556;9.914;2023-11-19T04:41:35;6.10;;;2.20;;
71606;SDS011;60641;53.556;9.914;2023-11-19T04:44:02;7.00;;;2.00;;
71606;SDS011;60641;53.556;9.914;2023-11-19T04:46:29;5.20;;;2.10;;
71606;SDS011;60641;53.556;9.914;2023-11-19T04:48:55;6.60;;;2.30;;
71606;SDS011;60641;53.556;9.914;2023-11-19T04:51:22;5.50;;;2.40;;
71606;SDS011;60641;53.556;9.914;2023-11-19T04:53:48;5.90;;;2.80;;
71606;SDS011;60641;53.556;9.914;2023-11-19T04:56:15;7.30;;;3.10;;
71606;SDS011;60641;53.556;9.914;2023-11-19T04:58:42;8.10;;;3.20;;
71606;SDS011;60641;53.556;9.914;2023-11-19T05:01:13;8.50;;;3.30;;
71606;SDS011;60641;53.556;9.914;2023-11-19T05:03:41;8.10;;;3.70;;
71606;SDS011;60641;53.556;9.914;2023-11-19T05:06:08;9.00;;;4.00;;
71606;SDS011;60641;53.556;9.914;2023-11-19T05:08:35;9.60;;;4.20;;
71606;SDS011;60641;53.556;9.914;2023-11-19T05:11:01;13.10;;;4.50;;
71606;SDS011;60641;53.556;9.914;2023-11-19T05:13:28;11.00;;;4.90;;
71606;SDS011;60641;53.556;9.914;2023-11-19T05:15:55;9.70;;;5.00;;
71606;SDS011;60641;53.556;9.914;2023-11-19T05:18:21;10.50;;;5.50;;
71606;SDS011;60641;53.556;9.914;2023-11-19T05:20:47;10.20;;;5.30;;
71606;SDS011;60641;53.556;9.914;2023-11-19T05:23:14;12.30;;;5.50;;
71606;SDS011;60641;53.556;9.914;2023-11-19T05:25:40;10.60;;;5.60;;
71606;SDS011;60641;53.556;9.914;2023-11-19T05:28:07;13.00;;;6.50;;
71606;SDS011;60641;53.556;9.914;2023-11-19T05:30:34;12.80;;;6.40;;
71606;SDS011;60641;53.556;9.914;2023-11-19T05:33:00;14.10;;;6.00;;
71606;SDS011;60641;53.556;9.914;2023-11-19T05:35:27;10.50;;;5.90;;
71606;SDS011;60641;53.556;9.914;2023-11-19T05:37:53;12.50;;;6.10;;
71606;SDS011;60641;53.556;9.914;2023-11-19T05:40:19;15.20;;;6.60;;
71606;SDS011;60641;53.556;9.914;2023-11-19T05:42:46;15.40;;;6.10;;
71606;SDS011;60641;53.556;9.914;2023-11-19T05:45:13;14.40;;;6.60;;
71606;SDS011;60641;53.556;9.914;2023-11-19T05:47:40;14.70;;;6.20;;
71606;SDS011;60641;53.556;9.914;2023-11-19T05:50:07;15.40;;;6.50;;
71606;SDS011;60641;53.556;9.914;2023-11-19T05:52:34;12.90;;;6.20;;
71606;SDS011;60641;53.556;9.914;2023-11-19T05:55:01;16.50;;;6.80;;
71606;SDS011;60641;53.556;9.914;2023-11-19T05:57:31;17.50;;;6.50;;
71606;SDS011;60641;53.556;9.914;2023-11-19T05:59:57;17.70;;;6.70;;
71606;SDS011;60641;53.556;9.914;2023-11-19T06:02:25;13.70;;;6.90;;
71606;SDS011;60641;53.556;9.914;2023-11-19T06:04:53;16.00;;;6.50;;
71606;SDS011;60641;53.556;9.914;2023-11-19T06:07:19;16.30;;;6.10;;
71606;SDS011;60641;53.556;9.914;2023-11-19T06:09:46;15.00;;;6.20;;
71606;SDS011;60641;53.556;9.914;2023-11-19T06:12:12;15.30;;;6.00;;
71606;SDS011;60641;53.556;9.914;2023-11-19T06:14:40;18.80;;;6.70;;
71606;SDS011;60641;53.556;9.914;2023-11-19T06:17:07;14.00;;;6.00;;
71606;SDS011;60641;53.556;9.914;2023-11-19T06:19:34;16.30;;;5.50;;
71606;SDS011;60641;53.556;9.914;2023-11-19T06:22:00;16.30;;;5.90;;
71606;SDS011;60641;53.556;9.914;2023-11-19T06:24:27;17.20;;;6.30;;
71606;SDS011;60641;53.556;9.914;2023-11-19T06:26:54;14.20;;;6.00;;
71606;SDS011;60641;53.556;9.914;2023-11-19T06:29:20;17.80;;;5.30;;
71606;SDS011;60641;53.556;9.914;2023-11-19T06:31:47;15.40;;;5.50;;
71606;SDS011;60641;53.556;9.914;2023-11-19T06:34:16;16.30;;;5.20;;
71606;SDS011;60641;53.556;9.914;2023-11-19T06:36:42;16.60;;;4.60;;
71606;SDS011;60641;53.556;9.914;2023-11-19T06:39:11;19.30;;;6.50;;
71606;SDS011;60641;53.556;9.914;2023-11-19T06:41:38;14.80;;;5.00;;
71606;SDS011;60641;53.556;9.914;2023-11-19T06:44:05;19.70;;;5.10;;
71606;SDS011;60641;53.556;9.914;2023-11-19T06:46:31;15.80;;;4.80;;
71606;SDS011;60641;53.556;9.914;2023-11-19T06:48:58;21.70;;;4.20;;
71606;SDS011;60641;53.556;9.914;2023-11-19T06:51:24;17.30;;;4.90;;
71606;SDS011;60641;53.556;9.914;2023-11-19T06:53:51;17.40;;;4.20;;
71606;SDS011;60641;53.556;9.914;2023-11-19T06:56:24;16.30;;;4.00;;
71606;SDS011;60641;53.556;9.914;2023-11-19T06:58:51;21.20;;;4.30;;
71606;SDS011;60641;53.556;9.914;2023-11-19T07:01:18;13.70;;;3.50;;
71606;SDS011;60641;53.556;9.914;2023-11-19T07:03:45;16.20;;;4.00;;
71606;SDS011;60641;53.556;9.914;2023-11-19T07:06:12;14.60;;;3.90;;
71606;SDS011;60641;53.556;9.914;2023-11-19T07:08:42;15.30;;;3.50;;
71606;SDS011;60641;53.556;9.914;2023-11-19T07:11:11;15.00;;;3.20;;
71606;SDS011;60641;53.556;9.914;2023-11-19T07:13:40;18.20;;;3.60;;
71606;SDS011;60641;53.556;9.914;2023-11-19T07:16:07;16.50;;;3.30;;
71606;SDS011;60641;53.556;9.914;2023-11-19T07:18:37;17.50;;;3.40;;
71606;SDS011;60641;53.556;9.914;2023-11-19T07:21:04;16.00;;;2.90;;
71606;SDS011;60641;53.556;9.914;2023-11-19T07:23:30;17.10;;;2.50;;
71606;SDS011;60641;53.556;9.914;2023-11-19T07:25:58;17.30;;;2.70;;
71606;SDS011;60641;53.556;9.914;2023-11-19T07:28:24;15.00;;;2.90;;
71606;SDS011;60641;53.556;9.914;2023-11-19T07:30:51;17.70;;;2.80;;
71606;SDS011;60641;53.556;9.914;2023-11-19T07:33:17;16.10;;;2.30;;
71606;SDS011;60641;53.556;9.914;2023-11-19T07:35:44;17.70;;;2.20;;
71606;SDS011;60641;53.556;9.914;2023-11-19T07:38:10;14.80;;;2.70;;
71606;SDS011;60641;53.556;9.914;2023-11-19T07:40:37;17.10;;;2.40;;
71606;SDS011;60641;53.556;9.914;2023-11-19T07:43:03;16.10;;;2.10;;
71606;SDS011;60641;53.556;9.914;2023-11-19T07:45:29;17.90;;;2.70;;
71606;SDS011;60641;53.556;9.914;2023-11-19T07:47:56;16.70;;;2.70;;
71606;SDS011;60641;53.556;9.914;2023-11-19T07:50:22;19.90;;;3.10;;
71606;SDS011;60641;53.556;9.914;2023-11-19T07:52:50;18.00;;;2.90;;
71606;SDS011;60641;53.556;9.914;2023-11-19T07:55:16;14.40;;;2.50;;
71606;SDS011;60641;53.556;9.914;2023-11-19T07:57:43;16.50;;;2.70;;
71606;SDS011;60641;53.556;9.914;2023-11-19T08:00:09;16.90;;;2.70;;
71606;SDS011;60641;53.556;9.914;2023-11-19T08:02:39;18.70;;;2.70;;
71606;SDS011;60641;53.556;9.914;2023-11-19T08:05:07;20.40;;;3.10;;
71606;SDS011;60641;53.556;9.914;2023-11-19T08:07:33;18.90;;;2.50;;
71606;SDS011;60641;53.556;9.914;2023-11-19T08:10:00;19.80;;;2.80;;
71606;SDS011;60641;53.556;9.914;2023-11-19T08:12:27;19.80;;;3.10;;
71606;SDS011;60641;53.556;9.914;2023-11-19T08:14:54;21.90;;;3.00;;
71606;SDS011;60641;53.556;9.914;2023-11-19T08:17:20;19.60;;;3.20;;
71606;SDS011;60641;53.556;9.914;2023-11-19T08:19:49;22.80;;;3.10;;
71606;SDS011;60641;53.556;9.914;2023-11-19T08:22:15;21.10;;;3.60;;
71606;SDS011;60641;53.556;9.914;2023-11-19T08:24:43;16.00;;;2.70;;
71606;SDS011;60641;53.556;9.914;2023-11-19T08:27:09;16.80;;;3.00;;
71606;SDS011;60641;53.556;9.914;2023-11-19T08:29:36;22.00;;;3.60;;
71606;SDS011;60641;53.556;9.914;2023-11-19T08:32:03;19.50;;;3.10;;
71606;SDS011;60641;53.556;9.914;2023-11-19T08:34:29;20.30;;;3.30;;
71606;SDS011;60641;53.556;9.914;2023-11-19T08:36:56;17.50;;;3.20;;
71606;SDS011;60641;53.556;9.914;2023-11-19T08:39:23;18.70;;;3.10;;
71606;SDS011;60641;53.556;9.914;2023-11-19T08:41:50;17.70;;;3.10;;
71606;SDS011;60641;53.556;9.914;2023-11-19T08:44:17;21.00;;;3.20;;
71606;SDS011;60641;53.556;9.914;2023-11-19T08:46:46;24.20;;;2.80;;
71606;SDS011;60641;53.556;9.914;2023-11-19T08:49:14;19.90;;;3.00;;
71606;SDS011;60641;53.556;9.914;2023-11-19T08:51:40;22.20;;;3.00;;
71606;SDS011;60641;53.556;9.914;2023-11-19T08:54:07;21.20;;;2.80;;
71606;SDS011;60641;53.556;9.914;2023-11-19T08:56:34;20.70;;;3.00;;
71606;SDS011;60641;53.556;9.914;2023-11-19T08:59:01;15.90;;;2.80;;
71606;SDS011;60641;53.556;9.914;2023-11-19T09:01:28;20.30;;;3.30;;
71606;SDS011;60641;53.556;9.914;2023-11-19T09:03:55;23.00;;;2.90;;
71606;SDS011;60641;53.556;9.914;2023-11-19T09:06:21;24.10;;;3.30;;
71606;SDS011;60641;53.556;9.914;2023-11-19T09:08:48;20.40;;;3.10;;
71606;SDS011;60641;53.556;9.914;2023-11-19T09:11:14;20.60;;;3.90;;
71606;SDS011;60641;53.556;9.914;2023-11-19T09:13:43;17.70;;;3.00;;
71606;SDS011;60641;53.556;9.914;2023-11-19T09:16:11;20.60;;;3.30;;
71606;SDS011;60641;53.556;9.914;2023-11-19T09:18:38;21.10;;;2.90;;
71606;SDS011;60641;53.556;9.914;2023-11-19T09:21:04;16.80;;;2.80;;
71606;SDS011;60641;53.556;9.914;2023-11-19T09:23:31;22.90;;;3.10;;
71606;SDS011;60641;53.556;9.914;2023-11-19T09:26:02;20.40;;;2.60;;
71606;SDS011;60641;53.556;9.914;2023-11-19T09:28:29;19.20;;;3.00;;
71606;SDS011;60641;53.556;9.914;2023-11-19T09:30:55;21.10;;;3.90;;
71606;SDS011;60641;53.556;9.914;2023-11-19T09:33:22;19.60;;;3.20;;
71606;SDS011;60641;53.556;9.914;2023-11-19T09:35:48;20.80;;;3.30;;
71606;SDS011;60641;53.556;9.914;2023-11-19T09:38:16;21.80;;;3.00;;
71606;SDS011;60641;53.556;9.914;2023-11-19T09:40:43;20.60;;;3.40;;
71606;SDS011;60641;53.556;9.914;2023-11-19T09:43:09;20.90;;;3.20;;
71606;SDS011;60641;53.556;9.914;2023-11-19T09:45:46;26.20;;;3.40;;
71606;SDS011;60641;53.556;9.914;2023-11-19T09:48:17;20.50;;;2.90;;
71606;SDS011;60641;53.556;9.914;2023-11-19T09:50:48;23.40;;;3.10;;
71606;SDS011;60641;53.556;9.914;2023-11-19T09:53:15;20.00;;;3.10;;
71606;SDS011;60641;53.556;9.914;2023-11-19T09:55:42;22.50;;;3.30;;
71606;SDS011;60641;53.556;9.914;2023-11-19T09:58:08;20.50;;;3.40;;
71606;SDS011;60641;53.556;9.914;2023-11-19T10:00:38;21.90;;;3.50;;
71606;SDS011;60641;53.556;9.914;2023-11-19T10:03:05;21.80;;;3.40;;
71606;SDS011;60641;53.556;9.914;2023-11-19T10:05:34;23.90;;;3.60;;
71606;SDS011;60641;53.556;9.914;2023-11-19T10:08:01;19.90;;;3.40;;
71606;SDS011;60641;53.556;9.914;2023-11-19T10:10:29;23.90;;;4.00;;
71606;SDS011;60641;53.556;9.914;2023-11-19T10:12:55;18.80;;;3.70;;
71606;SDS011;60641;53.556;9.914;2023-11-19T10:15:23;24.80;;;4.00;;
71606;SDS011;60641;53.556;9.914;2023-11-19T10:17:50;20.50;;;2.90;;
71606;SDS011;60641;53.556;9.914;2023-11-19T10:20:17;23.40;;;3.20;;
71606;SDS011;60641;53.556;9.914;2023-11-19T10:22:43;19.80;;;3.20;;
71606;SDS011;60641;53.556;9.914;2023-11-19T10:27:51;25.20;;;4.00;;
71606;SDS011;60641;53.556;9.914;2023-11-19T10:30:21;24.20;;;3.60;;
71606;SDS011;60641;53.556;9.914;2023-11-19T10:33:05;20.50;;;3.30;;
71606;SDS011;60641;53.556;9.914;2023-11-19T10:35:35;20.00;;;3.10;;
71606;SDS011;60641;53.556;9.914;2023-11-19T10:38:20;19.40;;;3.40;;
71606;SDS011;60641;53.556;9.914;2023-11-19T10:40:48;18.40;;;3.00;;
71606;SDS011;60641;53.556;9.914;2023-11-19T10:43:15;24.60;;;3.60;;
71606;SDS011;60641;53.556;9.914;2023-11-19T10:45:42;23.00;;;3.50;;
71606;SDS011;60641;53.556;9.914;2023-11-19T10:48:09;19.20;;;3.10;;
71606;SDS011;60641;53.556;9.914;2023-11-19T10:50:36;21.50;;;3.50;;
71606;SDS011;60641;53.556;9.914;2023-11-19T10:53:04;20.80;;;3.00;;
71606;SDS011;60641;53.556;9.914;2023-11-19T10:55:34;21.30;;;4.00;;
71606;SDS011;60641;53.556;9.914;2023-11-19T10:58:08;19.60;;;3.00;;
71606;SDS011;60641;53.556;9.914;2023-11-19T11:00:43;22.30;;;3.20;;
71606;SDS011;60641;53.556;9.914;2023-11-19T11:03:20;22.80;;;3.10;;
71606;SDS011;60641;53.556;9.914;2023-11-19T11:05:51;15.20;;;2.90;;
71606;SDS011;60641;53.556;9.914;2023-11-19T11:08:19;19.60;;;3.20;;
71606;SDS011;60641;53.556;9.914;2023-11-19T11:10:53;18.30;;;3.00;;
71606;SDS011;60641;53.556;9.914;2023-11-19T11:13:24;16.00;;;2.60;;
71606;SDS011;60641;53.556;9.914;2023-11-19T11:15:54;22.50;;;3.40;;
71606;SDS011;60641;53.556;9.914;2023-11-19T11:18:22;20.00;;;2.80;;
71606;SDS011;60641;53.556;9.914;2023-11-19T11:20:52;17.60;;;3.20;;
71606;SDS011;60641;53.556;9.914;2023-11-19T11:31:40;18.90;;;3.50;;
71606;SDS011;60641;53.556;9.914;2023-11-19T11:36:57;19.90;;;3.10;;
71606;SDS011;60641;53.556;9.914;2023-11-19T11:39:32;21.80;;;3.60;;
71606;SDS011;60641;53.556;9.914;2023-11-19T11:50:14;21.00;;;3.50;;
71606;SDS011;60641;53.556;9.914;2023-11-19T11:55:34;19.10;;;3.50;;
71606;SDS011;60641;53.556;9.914;2023-11-19T11:58:05;21.10;;;3.20;;
71606;SDS011;60641;53.556;9.914;2023-11-19T12:00:32;17.90;;;2.70;;
71606;SDS011;60641;53.556;9.914;2023-11-19T12:03:06;23.90;;;3.40;;
71606;SDS011;60641;53.556;9.914;2023-11-19T12:05:41;22.00;;;3.70;;
71606;SDS011;60641;53.556;9.914;2023-11-19T12:08:12;21.60;;;3.10;;
71606;SDS011;60641;53.556;9.914;2023-11-19T12:10:45;17.90;;;2.80;;
71606;SDS011;60641;53.556;9.914;2023-11-19T12:13:19;17.80;;;2.80;;
71606;SDS011;60641;53.556;9.914;2023-11-19T12:18:26;20.20;;;3.20;;
71606;SDS011;60641;53.556;9.914;2023-11-19T12:20:54;18.50;;;2.70;;
71606;SDS011;60641;53.556;9.914;2023-11-19T12:23:21;17.20;;;3.10;;
71606;SDS011;60641;53.556;9.914;2023-11-19T12:25:48;19.00;;;3.00;;
71606;SDS011;60641;53.556;9.914;2023-11-19T12:28:15;17.10;;;2.60;;
71606;SDS011;60641;53.556;9.914;2023-11-19T12:30:43;16.80;;;3.20;;
71606;SDS011;60641;53.556;9.914;2023-11-19T12:33:10;16.20;;;2.90;;
71606;SDS011;60641;53.556;9.914;2023-11-19T12:35:44;16.30;;;2.90;;
71606;SDS011;60641;53.556;9.914;2023-11-19T12:38:25;18.00;;;2.80;;
71606;SDS011;60641;53.556;9.914;2023-11-19T12:41:03;17.40;;;2.80;;
71606;SDS011;60641;53.556;9.914;2023-11-19T12:43:32;18.20;;;3.20;;
71606;SDS011;60641;53.556;9.914;2023-11-19T12:46:25;17.30;;;2.80;;
71606;SDS011;60641;53.556;9.914;2023-11-19T12:49:12;18.70;;;2.80;;
71606;SDS011;60641;53.556;9.914;2023-11-19T12:51:42;18.20;;;3.40;;
71606;SDS011;60641;53.556;9.914;2023-11-19T12:54:35;21.70;;;3.40;;
71606;SDS011;60641;53.556;9.914;2023-11-19T12:57:10;21.10;;;3.50;;
71606;SDS011;60641;53.556;9.914;2023-11-19T12:59:40;18.30;;;2.90;;
71606;SDS011;60641;53.556;9.914;2023-11-19T13:02:07;19.30;;;2.60;;
71606;SDS011;60641;53.556;9.914;2023-11-19T13:04:34;18.50;;;3.10;;
71606;SDS011;60641;53.556;9.914;2023-11-19T13:07:01;18.10;;;3.20;;
71606;SDS011;60641;53.556;9.914;2023-11-19T13:09:30;20.10;;;2.90;;
71606;SDS011;60641;53.556;9.914;2023-11-19T13:11:57;20.10;;;3.10;;
71606;SDS011;60641;53.556;9.914;2023-11-19T13:14:35;16.20;;;3.00;;
71606;SDS011;60641;53.556;9.914;2023-11-19T13:17:04;17.50;;;3.30;;
71606;SDS011;60641;53.556;9.914;2023-11-19T13:19:32;19.10;;;3.00;;
71606;SDS011;60641;53.556;9.914;2023-11-19T13:21:58;18.00;;;3.00;;
71606;SDS011;60641;53.556;9.914;2023-11-19T13:24:24;18.70;;;2.70;;
71606;SDS011;60641;53.556;9.914;2023-11-19T13:26:51;16.40;;;3.10;;
71606;SDS011;60641;53.556;9.914;2023-11-19T13:29:17;16.20;;;2.70;;
71606;SDS011;60641;53.556;9.914;2023-11-19T13:31:44;19.60;;;2.90;;
71606;SDS011;60641;53.556;9.914;2023-11-19T13:34:10;18.70;;;2.50;;
71606;SDS011;60641;53.556;9.914;2023-11-19T13:36:38;21.60;;;3.80;;
71606;SDS011;60641;53.556;9.914;2023-11-19T13:39:05;17.80;;;3.30;;
71606;SDS011;60641;53.556;9.914;2023-11-19T13:41:31;16.50;;;2.80;;
71606;SDS011;60641;53.556;9.914;2023-11-19T13:43:57;17.20;;;2.90;;
71606;SDS011;60641;53.556;9.914;2023-11-19T13:46:25;19.50;;;3.40;;
71606;SDS011;60641;53.556;9.914;2023-11-19T13:48:51;21.30;;;3.30;;
71606;SDS011;60641;53.556;9.914;2023-11-19T13:51:17;18.60;;;2.30;;
71606;SDS011;60641;53.556;9.914;2023-11-19T13:53:44;18.60;;;2.90;;
71606;SDS011;60641;53.556;9.914;2023-11-19T13:56:11;19.90;;;3.60;;
71606;SDS011;60641;53.556;9.914;2023-11-19T13:58:37;18.60;;;2.80;;
71606;SDS011;60641;53.556;9.914;2023-11-19T14:01:04;20.50;;;2.90;;
71606;SDS011;60641;53.556;9.914;2023-11-19T14:03:31;18.90;;;3.40;;
71606;SDS011;60641;53.556;9.914;2023-11-19T14:05:59;19.90;;;2.70;;
71606;SDS011;60641;53.556;9.914;2023-11-19T14:08:27;18.60;;;3.00;;
71606;SDS011;60641;53.556;9.914;2023-11-19T14:10:53;22.70;;;3.30;;
71606;SDS011;60641;53.556;9.914;2023-11-19T14:13:22;25.20;;;3.50;;
71606;SDS011;60641;53.556;9.914;2023-11-19T14:15:49;18.70;;;3.00;;
71606;SDS011;60641;53.556;9.914;2023-11-19T14:18:17;15.10;;;2.80;;
71606;SDS011;60641;53.556;9.914;2023-11-19T14:20:44;20.60;;;3.00;;
71606;SDS011;60641;53.556;9.914;2023-11-19T14:23:10;19.70;;;2.90;;
71606;SDS011;60641;53.556;9.914;2023-11-19T14:25:37;16.60;;;2.50;;
71606;SDS011;60641;53.556;9.914;2023-11-19T14:28:03;21.60;;;2.90;;
71606;SDS011;60641;53.556;9.914;2023-11-19T14:30:32;14.20;;;2.30;;
71606;SDS011;60641;53.556;9.914;2023-11-19T14:33:00;18.20;;;3.00;;
71606;SDS011;60641;53.556;9.914;2023-11-19T14:35:26;17.50;;;2.80;;
71606;SDS011;60641;53.556;9.914;2023-11-19T14:37:53;20.10;;;3.10;;
71606;SDS011;60641;53.556;9.914;2023-11-19T14:40:19;15.90;;;2.70;;
71606;SDS011;60641;53.556;9.914;2023-11-19T14:42:46;13.50;;;2.60;;
71606;SDS011;60641;53.556;9.914;2023-11-19T14:45:13;17.90;;;2.70;;
71606;SDS011;60641;53.556;9.914;2023-11-19T14:47:39;16.30;;;2.70;;
71606;SDS011;60641;53.556;9.914;2023-11-19T14:50:06;14.10;;;2.20;;
71606;SDS011;60641;53.556;9.914;2023-11-19T14:52:35;16.90;;;2.80;;
71606;SDS011;60641;53.556;9.914;2023-11-19T14:55:03;17.00;;;3.00;;
71606;SDS011;60641;53.556;9.914;2023-11-19T14:57:30;13.50;;;2.60;;
71606;SDS011;60641;53.556;9.914;2023-11-19T14:59:57;18.90;;;3.50;;
71606;SDS011;60641;53.556;9.914;2023-11-19T15:02:23;15.10;;;2.30;;
71606;SDS011;60641;53.556;9.914;2023-11-19T15:04:54;16.90;;;2.30;;
71606;SDS011;60641;53.556;9.914;2023-11-19T15:07:25;16.50;;;3.20;;
71606;SDS011;60641;53.556;9.914;2023-11-19T15:09:52;12.40;;;1.90;;
71606;SDS011;60641;53.556;9.914;2023-11-19T15:12:18;10.80;;;2.10;;